Latest Weather Observations for Cape Sorell

IDT60801

Issued at 2:02 pm EDT Wednesday 27 March 2019 (issued every 10 minutes, with the page automatically refreshed every 10 minutes)

About weather observations | Map of weather stations | Latest weather observations for TAS | Other Formats
Station Details ID: 097000 Name: CAPE SORELL Lat: -42.20 Lon: 145.17 Height: 19.3 m
Data from the previous 72 hours. | See also: Recent months at Cape Sorell
Date/Time
EDT
Temp
°C
App
Temp
°C
Dew
Point
°C
Rel
Hum
%
Delta-T
°C
Wind Press
QNH
hPa
Press
MSL
hPa
Rain since
9am
mm
Dir  Spd
km/h
Gust
km/h
Spd
kts
Gust
kts
27/02:00pm 17.5 15.7 13.2 76 2.4 NW 15 24 8 13 1021.4 1021.3 0.6
27/01:30pm 15.1 12.2 12.2 83 1.6 NW 19 24 10 13 1021.6 1021.5 0.6
27/01:00pm 16.6 14.0 13.3 81 1.8 NNW 19 28 10 15 1021.8 1021.7 0.6
27/12:30pm 15.7 13.0 13.5 87 1.2 NW 20 26 11 14 1022.1 1022.0 0.6
27/12:00pm 15.2 12.5 12.9 86 1.3 N 19 24 10 13 1022.2 1022.1 0.2
27/11:30am 14.3 11.5 12.5 89 1.0 N 19 24 10 13 1022.4 1022.3 0.2
27/11:00am 14.1 11.1 12.1 88 1.1 N 19 26 10 14 1022.6 1022.5 0.2
27/10:30am 13.4 10.2 11.8 90 0.9 N 20 24 11 13 1022.5 1022.4 0.2
27/10:00am 12.8 9.4 11.2 90 0.8 N 20 26 11 14 1022.2 1022.1 0.2
27/09:30am 12.6 8.3 10.8 89 0.9 NNE 24 30 13 16 1021.9 1021.8 0.0
27/09:00am 12.9 9.5 11.3 90 0.8 NNE 20 26 11 14 1021.9 1021.8 0.6
27/08:30am 12.7 9.2 10.8 88 1.0 N 20 26 11 14 1021.8 1021.7 0.6
27/08:00am 13.3 10.3 10.8 85 1.3 NNW 17 24 9 13 1021.5 1021.4 0.4
27/07:30am 13.7 10.4 9.6 76 2.1 NNW 17 22 9 12 1021.2 1021.1 0.4
27/07:00am 13.3 10.3 9.4 77 2.0 NNW 15 20 8 11 1021.2 1021.1 0.4
27/06:30am 13.1 9.2 9.4 78 1.9 NNE 20 26 11 14 1020.8 1020.7 0.4
27/06:00am 12.9 8.9 9.0 77 2.0 NNE 20 24 11 13 1020.7 1020.6 0.4
27/05:30am 12.7 8.8 8.8 77 2.0 NNE 19 24 10 13 1020.6 1020.5 0.4
27/05:00am 13.0 9.1 8.7 75 2.1 NNE 19 20 10 11 1020.6 1020.5 0.4
27/04:30am 13.6 11.8 8.0 69 2.8 NNW 7 13 4 7 1020.7 1020.6 0.4
27/04:00am 13.3 10.9 6.9 65 3.1 W 9 13 5 7 1020.8 1020.7 0.4
27/03:30am 13.0 10.1 6.6 65 3.1 WNW 11 15 6 8 1020.8 1020.7 0.4
27/03:00am 13.0 10.1 6.6 65 3.1 WNW 11 17 6 9 1020.9 1020.8 0.4
27/02:30am 12.9 8.8 6.3 64 3.1 WNW 17 24 9 13 1020.8 1020.7 0.4
27/02:00am 13.3 9.7 6.9 65 3.1 WNW 15 20 8 11 1020.9 1020.8 0.4
27/01:30am 13.5 10.0 7.3 66 3.0 WNW 15 20 8 11 1020.8 1020.7 0.4
27/01:00am 13.6 11.1 8.2 70 2.7 W 11 17 6 9 1020.8 1020.7 0.4
27/12:30am 13.4 9.8 6.7 64 3.2 WNW 15 20 8 11 1020.8 1020.7 0.4
27/12:00am 13.5 10.5 7.9 69 2.8 WNW 13 19 7 10 1020.7 1020.6 0.4
 
Date/Time
EDT
Temp
°C
App
Temp
°C
Dew
Point
°C
Rel
Hum
%
Delta-T
°C
Wind Press
QNH
hPa
Press
MSL
hPa
Rain since
9am
mm
Dir  Spd
km/h
Gust
km/h
Spd
kts
Gust
kts
26/11:30pm 13.2 9.9 6.5 64 3.2 WNW 13 19 7 10 1020.6 1020.5 0.4
26/11:00pm 13.2 10.3 6.3 63 3.3 WSW 11 15 6 8 1020.5 1020.4 0.4
26/10:30pm 13.2 9.9 6.5 64 3.2 WSW 13 17 7 9 1020.4 1020.3 0.4
26/10:00pm 13.2 8.5 6.1 62 3.4 WSW 20 26 11 14 1020.4 1020.3 0.4
26/09:30pm 13.3 8.5 7.3 67 2.9 WSW 22 26 12 14 1020.1 1020.0 0.4
26/09:00pm 13.3 8.5 7.3 67 2.9 WSW 22 28 12 15 1019.7 1019.6 0.4
26/08:30pm 13.3 7.8 7.5 68 2.8 WSW 26 32 14 17 1019.2 1019.1 0.4
26/08:00pm 13.0 7.3 6.8 66 3.0 WSW 26 33 14 18 1018.7 1018.6 0.4
26/07:30pm 13.3 7.8 7.5 68 2.8 WSW 26 32 14 17 1018.2 1018.1 0.4
26/07:00pm 13.3 7.1 7.7 69 2.7 WSW 30 35 16 19 1017.8 1017.7 0.4
26/06:30pm 13.5 6.9 7.9 69 2.8 WSW 32 41 17 22 1017.2 1017.1 0.4
26/06:00pm 13.3 7.4 7.5 68 2.8 WSW 28 35 15 19 1016.9 1016.8 0.4
26/05:30pm 13.8 7.0 7.8 67 3.0 WSW 33 44 18 24 1016.5 1016.4 0.4
26/05:00pm 13.9 7.3 7.9 67 3.0 WSW 32 41 17 22 1016.2 1016.1 0.4
26/04:30pm 15.0 7.8 7.5 61 3.7 WSW 35 43 19 23 1015.6 1015.6 0.4
26/04:00pm 14.1 6.8 7.4 64 3.3 WSW 35 44 19 24 1015.2 1015.2 0.4
26/03:30pm 13.9 6.1 6.5 61 3.6 WSW 37 46 20 25 1015.0 1015.0 0.4
26/03:00pm 14.6 6.2 7.4 62 3.5 WSW 41 48 22 26 1014.6 1014.6 0.2
26/02:30pm 15.1 6.7 7.4 60 3.8 SW 41 46 22 25 1014.2 1014.2 0.2
26/02:00pm 14.1 5.9 8.1 67 3.0 WSW 41 50 22 27 1014.1 1014.1 0.2
26/01:30pm 13.9 4.1 7.0 63 3.4 SW 48 56 26 30 1013.8 1013.8 0.2
26/01:00pm 13.6 6.5 8.0 69 2.8 SW 35 48 19 26 1013.6 1013.6 0.2
26/12:30pm 12.8 1.9 7.3 69 2.7 WSW 54 67 29 36 1012.8 1012.8 0.2
26/12:00pm 13.6 2.7 5.7 59 3.7 WSW 52 63 28 34 1012.5 1012.5 0.2
26/11:30am 13.6 2.9 6.5 62 3.4 SW 52 61 28 33 1012.0 1012.0 0.2
26/11:00am 12.2 1.8 7.9 75 2.1 SW 52 65 28 35 1011.5 1011.5 0.2
26/10:30am 12.5 3.4 8.6 77 1.9 SW 46 59 25 32 1010.8 1010.8 0.2
26/10:00am 13.4 2.1 7.0 65 3.1 SW 56 69 30 37 1009.9 1009.9 0.2
26/09:33am 12.1 1.0 8.0 76 2.0 SW 56 76 30 41 1008.9 1008.9 0.2
26/09:30am 11.7 0.5 8.2 79 1.7 SW 57 76 31 41 1009.1 1009.1 0.2
26/09:00am 12.5 1.3 7.6 72 2.4 SW 56 65 30 35 1008.1 1008.1 4.0
26/08:31am 12.4 2.7 8.9 79 1.8 SW 50 74 27 40 1007.3 1007.3 4.0
26/08:30am 12.4 2.7 8.9 79 1.8 SW 50 59 27 32 1007.4 1007.4 4.0
26/08:14am 12.1 1.5 8.4 78 1.8 SW 54 74 29 40 1007.0 1007.0 4.0
26/08:00am 11.5 0.2 8.0 79 1.7 WSW 57 69 31 37 1006.8 1006.8 4.0
26/07:36am 11.7 0.1 8.4 80 1.6 WSW 59 80 32 43 1005.8 1005.8 4.0
26/07:30am 12.1 0.4 7.8 75 2.1 WSW 59 72 32 39 1005.9 1005.9 4.0
26/07:00am 11.0 -1.0 8.4 84 1.3 WSW 61 83 33 45 1005.2 1005.2 4.0
26/06:51am 12.1 0.4 8.0 76 2.0 SW 59 80 32 43 1004.7 1004.7 3.8
26/06:30am 11.8 0.4 7.7 76 2.0 WSW 57 74 31 40 1004.1 1004.1 3.8
26/06:00am 10.8 0.1 8.0 83 1.4 WSW 54 72 29 39 1004.0 1004.0 3.8
26/05:30am 11.6 2.9 8.6 82 1.5 WSW 44 63 24 34 1003.3 1003.3 3.8
26/05:27am 11.5 2.5 8.7 83 1.4 WSW 46 67 25 36 1003.6 1003.6 3.8
26/05:00am 12.1 0.8 7.8 75 2.1 WSW 57 72 31 39 1002.7 1002.7 3.8
26/04:41am 11.9 2.8 8.6 80 1.6 WSW 46 69 25 37 1002.2 1002.2 3.8
26/04:30am 11.1 1.1 8.0 81 1.5 W 50 65 27 35 1002.5 1002.5 3.8
26/04:03am 12.2 0.4 7.5 73 2.3 WSW 59 80 32 43 1001.4 1001.4 3.6
26/04:00am 12.3 0.7 8.2 76 2.0 WSW 59 76 32 41 1001.5 1001.5 3.6
26/03:30am 12.0 1.2 7.5 74 2.2 W 54 76 29 41 1001.4 1001.4 3.6
26/03:00am 11.6 2.9 7.7 77 1.9 W 43 61 23 33 1002.0 1002.0 3.6
26/02:43am 11.8 2.3 8.3 79 1.7 W 48 67 26 36 1001.8 1001.8 3.6
26/02:30am 11.3 1.7 8.0 80 1.6 W 48 65 26 35 1001.4 1001.4 3.6
26/02:00am 10.7 0.1 8.3 85 1.2 W 54 83 29 45 1001.6 1001.6 3.6
26/01:37am 11.6 1.2 7.7 77 1.9 W 52 70 28 38 1001.1 1001.1 3.2
26/01:30am 11.4 1.1 8.1 80 1.6 W 52 69 28 37 1000.8 1000.8 3.2
26/01:08am 12.1 2.4 7.6 74 2.2 W 48 69 26 37 1000.5 1000.5 3.2
26/01:00am 11.5 2.8 7.8 78 1.8 W 43 57 23 31 1000.7 1000.7 3.2
26/12:51am 11.0 1.3 7.3 78 1.8 W 48 69 26 37 1000.6 1000.6 3.2
26/12:30am 12.4 2.2 7.1 70 2.6 W 50 67 27 36 1000.0 1000.0 3.2
26/12:08am 12.3 0.6 6.4 67 2.8 W 57 85 31 46 999.6 999.6 3.2
26/12:07am 12.3 0.9 6.8 69 2.6 W 56 85 30 46 999.4 999.4 3.2
26/12:00am 12.5 3.3 8.2 75 2.1 WNW 46 67 25 36 999.6 999.6 3.2
 
Date/Time
EDT
Temp
°C
App
Temp
°C
Dew
Point
°C
Rel
Hum
%
Delta-T
°C
Wind Press
QNH
hPa
Press
MSL
hPa
Rain since
9am
mm
Dir  Spd
km/h
Gust
km/h
Spd
kts
Gust
kts
25/11:30pm 12.2 1.3 7.1 71 2.5 W 54 74 29 40 999.2 999.2 3.2
25/11:00pm 11.9 1.2 8.2 78 1.8 W 54 80 29 43 999.3 999.3 3.2
25/10:30pm 10.2 -0.7 7.1 81 1.5 W 54 85 29 46 999.0 999.0 3.2
25/10:00pm 11.5 1.5 7.8 78 1.8 W 50 70 27 38 998.4 998.4 3.0
25/09:30pm 11.6 0.9 6.3 70 2.5 W 52 78 28 42 998.2 998.2 3.0
25/09:00pm 11.5 0.9 8.4 81 1.5 W 54 72 29 39 997.3 997.3 3.0
25/08:30pm 10.6 -0.1 8.2 85 1.2 WNW 54 76 29 41 997.2 997.2 3.0
25/08:16pm 10.1 -1.1 8.4 89 0.8 W 57 85 31 46 997.1 997.1 3.0
25/08:14pm 10.2 -2.2 8.3 88 0.9 W 63 95 34 51 997.1 997.1 3.0
25/08:07pm 10.4 -3.2 8.0 85 1.2 WNW 69 95 37 51 996.7 996.7 3.0
25/08:06pm 10.6 -2.7 7.7 82 1.4 WNW 67 95 36 51 996.2 996.2 2.6
25/08:00pm 11.3 -1.0 7.0 75 2.1 WNW 61 85 33 46 996.5 996.5 2.6
25/07:30pm 12.0 0.2 7.3 73 2.3 WNW 59 78 32 42 996.7 996.7 2.4
25/07:00pm 10.7 -0.5 7.6 81 1.5 WNW 56 82 30 44 996.4 996.4 2.4
25/06:30pm 12.5 1.5 6.8 68 2.7 WNW 54 80 29 43 996.6 996.6 2.0
25/06:13pm 12.2 0.9 5.4 63 3.2 WNW 54 82 29 44 996.4 996.4 2.0
25/06:00pm 12.1 0.1 4.8 61 3.4 WNW 57 72 31 39 996.0 996.0 2.0
25/05:30pm 11.6 1.6 6.1 69 2.6 WNW 48 76 26 41 995.8 995.8 2.0
25/05:00pm 10.8 0.2 6.9 77 1.9 WNW 52 72 28 39 995.8 995.8 2.0
25/04:33pm 10.6 0.8 6.9 78 1.8 WNW 48 69 26 37 995.9 995.9 2.0
25/04:30pm 10.4 0.6 7.1 80 1.6 WNW 48 61 26 33 995.8 995.8 2.0
25/04:16pm 8.5 -3.1 6.6 88 0.9 WNW 57 89 31 48 996.4 996.4 2.0
25/04:11pm 8.4 -4.0 6.4 87 0.9 W 61 102 33 55 996.5 996.5 1.8
25/04:10pm 8.6 -3.4 6.4 86 1.0 W 59 102 32 55 996.3 996.3 1.8
25/04:04pm 10.1 -0.3 6.1 76 1.9 W 50 102 27 55 995.8 995.8 1.4
25/04:00pm 11.0 0.7 4.5 64 3.0 W 48 69 26 37 995.8 995.8 1.2
25/03:31pm 12.6 1.1 4.3 57 3.8 WNW 54 74 29 40 994.9 994.9 1.2
25/03:30pm 12.7 1.3 4.7 58 3.7 WNW 54 72 29 39 995.1 995.1 1.2
25/03:00pm 13.2 1.3 4.1 54 4.2 WNW 56 74 30 40 995.0 995.0 1.2
25/02:34pm 13.8 2.2 5.7 58 3.8 WNW 56 76 30 41 994.8 994.8 1.2
25/02:30pm 13.4 1.3 4.0 53 4.3 WNW 57 76 31 41 994.4 994.4 1.2
25/02:01pm 12.7 1.1 5.6 62 3.3 WNW 56 76 30 41 994.4 994.4 1.2
25/02:00pm 12.6 1.1 6.2 65 3.1 WNW 56 70 30 38 994.4 994.4 1.2
25/01:31pm 11.5 1.2 6.6 72 2.3 WNW 50 70 27 38 994.5 994.5 1.2
25/01:30pm 11.5 0.8 6.4 71 2.4 WNW 52 70 28 38 994.3 994.3 1.2
25/01:00pm 12.4 1.0 5.1 61 3.4 W 54 74 29 40 993.8 993.8 0.8
25/12:35pm 11.9 2.1 7.2 73 2.3 W 48 69 26 37 993.5 993.5 0.8
25/12:30pm 11.5 1.3 6.8 73 2.2 W 50 69 27 37 993.3 993.3 0.8
25/12:06pm 11.2 1.2 6.1 71 2.4 WNW 48 67 26 36 992.9 992.9 0.8
25/12:00pm 10.7 1.2 6.6 76 1.9 WNW 46 61 25 33 993.0 993.0 0.8
25/11:30am 10.1 2.0 6.8 80 1.6 NW 39 57 21 31 993.5 993.5 0.2
25/11:28am 9.9 0.9 6.3 78 1.7 NW 43 61 23 33 993.6 993.6 0.2
25/11:09am 10.2 0.5 5.8 74 2.0 WNW 46 65 25 35 993.3 993.3 0.2
25/11:00am 10.5 -0.8 5.5 71 2.3 W 54 72 29 39 993.0 993.0 0.2
25/10:52am 9.8 -1.1 5.6 75 1.9 WNW 52 70 28 38 993.2 993.2 0.2
25/10:50am 10.6 -0.3 5.6 71 2.3 WNW 52 70 28 38 993.3 993.3 0.2
25/10:36am 10.8 3.4 6.7 76 1.9 NW 35 57 19 31 992.9 992.9 0.2
25/10:30am 9.8 2.0 6.5 80 1.5 NW 37 50 20 27 993.1 993.1 0.2
25/10:23am 9.0 -0.7 5.7 80 1.5 WNW 46 87 25 47 993.2 993.2 0.2
25/10:18am 8.3 -3.8 4.1 75 1.8 WNW 57 87 31 47 993.3 993.3 0.2
25/10:06am 9.5 -3.4 5.9 78 1.7 WNW 63 89 34 48 992.9 992.9 0.2
25/10:04am 9.6 -2.6 5.8 77 1.7 WNW 59 89 32 48 992.5 992.5 0.2
25/10:00am 9.8 -0.9 6.3 79 1.6 WNW 52 82 28 44 992.5 992.5 0.2
25/09:30am 9.0 -1.6 7.0 87 0.9 WNW 52 70 28 38 992.7 992.7 0.0
25/09:15am 9.4 -0.1 6.8 84 1.2 WNW 46 67 25 36 992.6 992.6 0.0
25/09:00am 9.1 -0.3 7.1 87 0.9 NW 46 74 25 40 992.4 992.4 10.4
25/08:58am 8.8 -1.8 6.8 87 0.9 NW 52 80 28 43 992.3 992.3 10.4
25/08:48am 9.0 -2.3 7.1 88 0.9 WNW 56 80 30 43 992.6 992.6 10.2
25/08:36am 8.8 -1.8 6.9 88 0.9 W 52 72 28 39 992.4 992.4 9.6
25/08:30am 8.8 -2.2 6.6 86 1.0 WNW 54 74 29 40 992.0 992.0 9.2
25/08:13am 11.1 1.6 6.6 74 2.1 NW 46 65 25 35 991.9 991.9 9.0
25/08:00am 10.7 1.2 6.8 77 1.9 WNW 46 61 25 33 991.6 991.6 9.0
25/07:30am 10.3 -0.5 7.5 83 1.3 W 54 72 29 39 991.3 991.3 9.0
25/07:29am 10.2 -0.7 7.4 83 1.3 W 54 72 29 39 991.2 991.2 9.0
25/07:00am 10.4 -0.7 8.7 89 0.8 NW 57 76 31 41 990.7 990.7 9.0
25/06:50am 9.8 -2.6 8.1 89 0.8 NW 63 102 34 55 990.8 990.8 9.0
25/06:46am 9.7 -1.8 7.3 85 1.1 NW 57 102 31 55 990.3 990.3 9.0
25/06:45am 10.2 -0.7 7.3 82 1.4 NW 54 102 29 55 990.0 990.0 8.6
25/06:44am 10.9 0.6 8.0 82 1.4 NW 52 102 28 55 990.2 990.2 8.6
25/06:42am 11.2 1.7 8.4 83 1.4 NW 48 70 26 38 990.4 990.4 8.6
25/06:30am 10.4 -0.8 7.6 83 1.3 WNW 56 72 30 39 990.3 990.3 8.6
25/06:00am 12.5 1.5 7.0 69 2.7 NW 54 80 29 43 990.4 990.4 8.2
25/05:30am 11.6 -0.1 7.7 77 1.9 NW 59 85 32 46 989.6 989.6 8.2
25/05:00am 13.2 1.6 6.5 64 3.2 NW 57 83 31 45 989.1 989.1 7.8
25/04:30am 12.9 1.9 8.6 75 2.1 NW 56 80 30 43 988.9 988.9 7.8
25/04:00am 13.6 2.5 8.7 72 2.5 NW 57 91 31 49 988.8 988.8 7.8
25/03:58am 13.5 2.3 8.4 71 2.5 NW 57 91 31 49 988.8 988.8 7.8
25/03:50am 12.9 0.7 9.0 77 2.0 NW 63 85 34 46 989.2 989.2 7.8
25/03:42am 12.7 -0.2 9.0 78 1.9 NW 67 91 36 49 988.9 988.9 7.8
25/03:40am 12.8 0.2 8.7 76 2.1 NW 65 91 35 49 988.4 988.4 7.8
25/03:34am 14.5 3.7 9.9 74 2.4 NW 57 76 31 41 988.7 988.7 7.8
25/03:30am 14.5 3.1 9.1 70 2.8 NW 59 76 32 41 988.4 988.4 7.8
25/03:00am 14.9 3.6 9.3 69 2.9 NNW 59 83 32 45 988.7 988.7 7.8
25/02:30am 14.5 4.5 12.0 85 1.4 NNW 56 80 30 43 988.7 988.7 7.8
25/02:00am 13.7 2.6 11.4 86 1.2 NNW 61 82 33 44 988.9 988.9 7.6
25/01:30am 13.0 0.7 11.4 90 0.8 NW 67 91 36 49 989.4 989.4 7.2
25/01:06am 13.5 3.5 12.2 92 0.7 NW 56 83 30 45 989.2 989.2 6.8
25/01:00am 13.5 3.3 12.1 91 0.8 NW 57 70 31 38 989.1 989.1 6.8
25/12:30am 14.0 5.1 13.1 94 0.5 NNW 52 85 28 46 988.7 988.7 5.8
25/12:29am 14.8 6.2 14.0 95 0.5 NNW 52 85 28 46 988.5 988.5 5.8
25/12:00am 15.3 5.1 14.2 93 0.6 NNW 61 107 33 58 988.7 988.7 5.0
 
Date/Time
EDT
Temp
°C
App
Temp
°C
Dew
Point
°C
Rel
Hum
%
Delta-T
°C
Wind Press
QNH
hPa
Press
MSL
hPa
Rain since
9am
mm
Dir  Spd
km/h
Gust
km/h
Spd
kts
Gust
kts
24/11:57pm 15.3 4.5 13.8 91 0.8 NNW 63 107 34 58 988.8 988.8 4.8
24/11:54pm 15.8 5.7 13.6 87 1.2 N 59 107 32 58 988.2 988.2 4.4
24/11:52pm 18.6 10.2 14.7 78 2.3 N 52 80 28 43 988.6 988.6 1.6
24/11:30pm 18.6 7.6 14.1 75 2.6 N 65 80 35 43 986.7 986.7 1.4
24/11:27pm 18.6 6.9 14.3 76 2.5 N 69 87 37 47 986.9 986.9 1.4
24/11:16pm 18.5 7.5 14.2 76 2.5 NNE 65 85 35 46 985.8 985.8 1.4
24/11:00pm 18.2 10.1 14.3 78 2.3 NNE 50 72 27 39 986.2 986.2 1.0
24/10:57pm 17.9 10.3 14.6 81 1.9 NNE 48 72 26 39 986.9 986.9 1.0
24/10:30pm 18.9 12.0 14.0 73 2.8 NNE 43 54 23 29 988.5 988.5 0.6
24/10:00pm 18.5 11.6 14.0 75 2.6 NNE 43 54 23 29 990.4 990.4 0.6
24/09:30pm 18.4 12.7 14.1 76 2.5 NNE 37 43 20 23 992.0 992.0 0.6
24/09:00pm 18.2 13.5 14.3 78 2.3 NNE 32 37 17 20 993.6 993.6 0.6
24/08:30pm 18.4 13.7 14.3 77 2.4 N 32 37 17 20 995.3 995.3 0.6
24/08:00pm 18.6 12.4 13.9 74 2.7 N 39 52 21 28 996.1 996.1 0.6
24/07:30pm 18.6 11.3 13.5 72 2.9 N 44 56 24 30 996.6 996.6 0.6
24/07:23pm 18.4 12.2 13.7 74 2.7 N 39 56 21 30 996.7 996.7 0.6
24/07:00pm 17.2 12.7 14.8 86 1.4 N 32 37 17 20 997.6 997.6 0.6
24/06:30pm 17.1 13.9 14.2 83 1.7 NNW 24 33 13 18 998.3 998.3 0.6
24/06:00pm 17.4 13.8 14.1 81 1.9 NW 26 33 14 18 998.9 998.9 0.6
24/05:30pm 17.5 12.9 13.4 77 2.3 NW 30 37 16 20 999.3 999.3 0.6
24/05:00pm 17.8 12.2 13.3 75 2.6 NNW 35 44 19 24 1000.2 1000.2 0.6
24/04:30pm 17.9 12.1 12.6 71 3.0 NNW 35 43 19 23 1000.7 1000.7 0.6
24/04:00pm 17.8 11.2 12.7 72 2.9 NNW 39 50 21 27 1001.4 1001.4 0.6
24/03:30pm 18.5 13.8 14.2 76 2.5 NNW 32 43 17 23 1002.1 1002.1 0.6
24/03:00pm 18.4 14.4 14.1 76 2.5 NNW 28 35 15 19 1002.7 1002.7 0.6
24/02:30pm 17.2 14.1 13.3 78 2.2 NNW 22 30 12 16 1003.4 1003.4 0.6

Other formats

Comma delimited format used in spreadsheet applications
http://www.bom.gov.au/fwo/IDT60801/IDT60801.94974.axf

JavaScript Object Notation format (JSON) in row-major order
http://www.bom.gov.au/fwo/IDT60801/IDT60801.94974.json

Data quality

Most of these data are generated automatically and are frequently updated. Quality checks on data are not normally performed. It is possible for incorrect values to appear. Refer to information at About Latest Weather Observations and please check the disclaimer before using these data.